createdAt,value
2018-10-17T00:00:59.043Z,79.75
2018-10-17T00:02:07.106Z,79.66
2018-10-17T00:03:15.146Z,79.94
2018-10-17T00:04:23.228Z,80.04
2018-10-17T00:05:31.285Z,80.61
2018-10-17T00:06:39.342Z,80.42
2018-10-17T00:07:47.414Z,80.29
2018-10-17T00:08:55.478Z,80.76
2018-10-17T00:10:03.526Z,80.57
2018-10-17T00:11:11.609Z,80.86
2018-10-17T00:12:19.648Z,80.95
2018-10-17T00:13:27.710Z,80.95
2018-10-17T00:14:35.782Z,81.33
2018-10-17T00:15:43.847Z,81.62
2018-10-17T00:16:51.921Z,80.86
2018-10-17T00:17:59.962Z,80.76
2018-10-17T00:19:08.113Z,80.38
2018-10-17T00:20:16.093Z,79.91
2018-10-17T00:21:24.139Z,80.38
2018-10-17T00:22:32.221Z,80.47
2018-10-17T00:23:40.262Z,80.57
2018-10-17T00:24:48.307Z,80.29
2018-10-17T00:25:56.378Z,80.47
2018-10-17T00:27:04.450Z,80.38
2018-10-17T00:28:12.496Z,80.52
2018-10-17T00:29:20.558Z,80.38
2018-10-17T00:30:28.606Z,79.81
2018-10-17T00:31:36.688Z,79.85
2018-10-17T00:32:44.757Z,79.85
2018-10-17T00:33:52.810Z,79.94
2018-10-17T00:35:00.942Z,79.85
2018-10-17T00:36:08.924Z,80.33
2018-10-17T00:37:17.080Z,80.61
2018-10-17T00:38:25.061Z,80.23
2018-10-17T00:39:33.118Z,80.19
2018-10-17T00:40:41.179Z,80.38
2018-10-17T00:41:49.249Z,80.29
2018-10-17T00:42:57.367Z,80.00
2018-10-17T00:44:05.377Z,80.38
2018-10-17T00:45:13.427Z,80.47
2018-10-17T00:46:21.492Z,80.76
2018-10-17T00:47:29.547Z,81.05
2018-10-17T00:48:37.616Z,81.62
2018-10-17T00:49:45.666Z,80.95
2018-10-17T00:50:53.748Z,81.43
2018-10-17T00:52:01.799Z,80.95
2018-10-17T00:53:09.879Z,81.05
2018-10-17T00:54:17.913Z,81.81
2018-10-17T00:55:25.995Z,81.33
2018-10-17T00:56:34.048Z,81.90
2018-10-17T00:57:42.101Z,82.00
2018-10-17T00:58:50.166Z,82.28
2018-10-17T00:59:58.200Z,81.52
2018-10-17T01:01:06.328Z,82.09
2018-10-17T01:02:14.347Z,82.38
2018-10-17T01:03:22.423Z,82.67
2018-10-17T01:04:30.465Z,82.67
2018-10-17T01:05:38.501Z,82.67
2018-10-17T03:10:59.994Z,87.05
2018-10-17T03:11:33.296Z,87.24
2018-10-17T03:12:41.363Z,87.19
2018-10-17T03:13:49.453Z,87.34
2018-10-17T03:14:57.488Z,87.76
2018-10-17T03:16:05.547Z,87.38
2018-10-17T03:17:13.670Z,87.57
2018-10-17T03:18:21.666Z,87.67
2018-10-17T03:19:29.713Z,87.48
2018-10-17T03:20:37.799Z,87.48
2018-10-17T03:21:45.852Z,87.38
2018-10-17T03:22:53.960Z,87.48
2018-10-17T03:24:02.413Z,87.19
2018-10-17T03:25:10.114Z,87.38
2018-10-17T03:26:18.081Z,87.57
2018-10-17T03:27:26.140Z,87.57
2018-10-17T03:28:34.199Z,87.76
2018-10-17T03:29:42.271Z,87.86
2018-10-17T03:30:50.342Z,87.48
2018-10-17T03:31:58.375Z,87.43
2018-10-17T03:33:06.461Z,87.43
2018-10-17T03:34:14.505Z,88.38
2018-10-17T03:35:22.573Z,87.43
2018-10-17T03:36:30.620Z,87.34
2018-10-17T03:37:38.752Z,87.90
2018-10-17T03:38:46.739Z,87.71
2018-10-17T03:39:54.800Z,88.00
2018-10-17T03:41:02.889Z,87.71
2018-10-17T03:42:10.926Z,87.24
2018-10-17T03:43:19.046Z,87.24
2018-10-17T03:44:27.063Z,87.24
2018-10-17T03:45:35.112Z,86.67
2018-10-17T03:46:43.172Z,86.29
2018-10-17T03:47:51.227Z,86.47
2018-10-17T03:48:59.388Z,86.76
2018-10-17T03:50:07.364Z,86.86
2018-10-17T03:51:15.411Z,86.76
2018-10-17T03:52:23.476Z,86.95
2018-10-17T03:53:31.542Z,87.24
2018-10-17T03:54:39.592Z,87.43
2018-10-17T03:55:47.648Z,87.24
2018-10-17T03:56:55.715Z,87.14
2018-10-17T03:58:03.769Z,87.43
2018-10-17T03:59:11.944Z,87.34
2018-10-17T04:00:19.905Z,87.24
2018-10-17T04:01:27.968Z,87.34
2018-10-17T04:02:36.039Z,87.24
2018-10-17T04:03:44.082Z,87.52
2018-10-17T04:04:52.198Z,87.52
2018-10-17T04:06:00.212Z,87.24
2018-10-17T04:07:08.327Z,86.95
2018-10-17T04:08:16.323Z,87.24
2018-10-17T04:09:24.385Z,87.24
2018-10-17T04:10:32.448Z,87.24
2018-10-17T04:11:40.534Z,87.24
2018-10-17T04:12:48.542Z,87.14
2018-10-17T04:13:56.621Z,86.86
2018-10-17T04:15:04.685Z,87.14
2018-10-17T04:16:12.737Z,87.14
2018-10-17T04:17:20.811Z,87.43
2018-10-17T04:18:28.845Z,87.43
2018-10-17T04:19:36.931Z,87.05
2018-10-17T04:20:45.042Z,87.34
2018-10-17T04:21:53.050Z,87.62
2018-10-17T04:23:01.146Z,87.43
2018-10-17T04:24:09.170Z,87.67
2018-10-17T04:25:17.308Z,87.67
2018-10-17T04:26:25.288Z,87.38
2018-10-17T04:27:33.351Z,87.43
2018-10-17T04:28:41.419Z,87.76
2018-10-17T04:29:49.475Z,87.43
2018-10-17T04:30:57.558Z,87.76
2018-10-17T04:32:05.587Z,86.86
2018-10-17T04:33:13.658Z,87.52
2018-10-17T04:34:21.724Z,87.62
2018-10-17T04:35:30.929Z,87.48
2018-10-17T04:36:37.873Z,87.34
2018-10-17T04:37:45.898Z,87.52
2018-10-17T04:38:53.950Z,87.71
2018-10-17T04:40:02.047Z,87.62
2018-10-17T04:41:10.115Z,87.52
2018-10-17T04:42:18.230Z,87.67
2018-10-17T04:43:26.202Z,88.05
2018-10-17T04:44:34.267Z,87.38
2018-10-17T04:45:42.301Z,87.76
2018-10-17T04:46:50.382Z,87.62
2018-10-17T04:47:58.415Z,87.29
2018-10-17T04:49:06.596Z,87.38
2018-10-17T04:50:14.561Z,88.05
2018-10-17T04:51:22.635Z,87.76
2018-10-17T04:52:31.398Z,88.15
2018-10-17T04:53:38.822Z,88.24
2018-10-17T04:54:47.302Z,88.15
2018-10-17T04:55:54.871Z,88.15
2018-10-17T04:57:02.918Z,88.24
2018-10-17T04:58:10.992Z,89.09
2018-10-17T04:59:19.047Z,88.81
2018-10-17T05:00:27.105Z,88.90
2018-10-17T05:01:35.277Z,88.34
2018-10-17T05:02:43.232Z,88.53
2018-10-17T05:03:51.275Z,88.81
2018-10-17T05:04:59.373Z,88.34
2018-10-17T05:06:07.412Z,88.24
2018-10-17T05:07:15.574Z,88.81
2018-10-17T05:08:23.532Z,88.81
2018-10-17T05:09:31.579Z,88.90
2018-10-17T05:10:39.649Z,88.71
2018-10-17T05:11:48.343Z,88.81
2018-10-17T05:12:55.832Z,88.90
2018-10-17T05:14:03.835Z,88.81
2018-10-17T05:15:11.948Z,88.43
2018-10-17T05:16:19.944Z,89.57
2018-10-17T05:17:28.736Z,89.28
2018-10-17T05:18:36.072Z,88.90
2018-10-17T05:19:44.122Z,88.90
2018-10-17T05:20:52.206Z,88.53
2018-10-17T05:22:00.255Z,88.81
2018-10-17T05:23:08.439Z,88.43
2018-10-17T05:24:16.382Z,88.48
2018-10-17T05:25:24.426Z,88.53
2018-10-17T05:26:32.510Z,88.48
2018-10-17T05:27:40.572Z,88.29
2018-10-17T05:28:48.585Z,88.48
2018-10-17T05:29:56.784Z,88.76
2018-10-17T05:31:04.789Z,88.48
2018-10-17T05:32:12.790Z,88.57
2018-10-17T05:33:20.852Z,88.39
2018-10-17T05:34:28.923Z,88.48
2018-10-17T05:35:36.979Z,89.05
2018-10-17T05:36:45.031Z,89.53
2018-10-17T05:37:53.318Z,89.24
2018-10-17T05:39:01.168Z,89.24
2018-10-17T05:40:09.211Z,89.62
2018-10-17T05:41:17.295Z,89.43
2018-10-17T05:42:25.348Z,90.14
2018-10-17T05:43:33.399Z,90.47
2018-10-17T05:44:41.466Z,90.14
2018-10-17T05:45:49.532Z,90.62
2018-10-17T05:46:57.634Z,90.24
2018-10-17T05:48:05.651Z,91.00
2018-10-17T05:49:13.772Z,91.28
2018-10-17T05:50:21.774Z,91.09
2018-10-17T05:51:29.830Z,91.19
2018-10-17T05:52:37.891Z,91.47
2018-10-17T05:53:45.966Z,91.66
2018-10-17T05:54:54.046Z,91.94
2018-10-17T05:56:02.068Z,92.04
2018-10-17T05:57:10.130Z,92.23
2018-10-17T05:58:18.171Z,92.90
2018-10-17T05:59:26.259Z,92.52
2018-10-17T06:00:34.322Z,93.08
2018-10-17T06:01:42.541Z,93.56
2018-10-17T06:02:50.436Z,93.18
2018-10-17T06:03:58.470Z,93.27
2018-10-17T06:05:06.623Z,92.99
2018-10-17T06:06:14.617Z,92.99
2018-10-17T06:07:22.685Z,92.99
2018-10-17T06:08:30.738Z,92.99
2018-10-17T06:09:38.777Z,92.52
2018-10-17T06:10:46.854Z,93.75
2018-10-17T06:11:54.916Z,93.56
2018-10-17T06:13:03.097Z,93.37
2018-10-17T06:14:11.040Z,93.75
2018-10-17T06:15:19.090Z,93.65
2018-10-17T06:16:27.168Z,93.80
2018-10-17T06:17:35.221Z,93.75
2018-10-17T06:18:43.289Z,93.60
2018-10-17T06:19:51.352Z,93.41
2018-10-17T06:20:59.406Z,93.60
2018-10-17T06:22:07.470Z,93.70
2018-10-17T06:23:15.700Z,93.89
2018-10-17T06:24:23.582Z,93.89
2018-10-17T06:25:31.646Z,94.08
2018-10-17T06:26:39.713Z,93.80
2018-10-17T06:27:47.759Z,93.80
2018-10-17T06:28:55.841Z,93.51
2018-10-17T06:30:03.886Z,93.13
2018-10-17T06:31:12.101Z,92.75
2018-10-17T06:32:20.001Z,91.75
2018-10-17T06:33:28.061Z,91.19
2018-10-17T06:34:36.156Z,91.09
2018-10-17T06:35:44.199Z,90.47
2018-10-17T06:36:52.273Z,88.95
2018-10-17T06:38:00.308Z,88.38
2018-10-17T06:39:08.349Z,88.00
2018-10-17T06:40:16.437Z,87.95
2018-10-17T06:41:24.500Z,88.00
2018-10-17T06:42:33.620Z,88.23
2018-10-17T06:43:40.717Z,87.57
2018-10-17T06:44:48.660Z,87.66
2018-10-17T06:45:56.749Z,87.57
2018-10-17T06:47:04.845Z,87.47
2018-10-17T06:48:12.874Z,87.57
2018-10-17T06:49:21.022Z,87.38
2018-10-17T06:50:28.980Z,86.99
2018-10-17T06:51:37.069Z,87.38
2018-10-17T06:52:45.116Z,87.28
2018-10-17T06:53:53.258Z,87.57
2018-10-17T06:55:01.282Z,87.28
2018-10-17T06:56:09.295Z,86.90
2018-10-17T06:57:17.364Z,87.38
2018-10-17T06:58:25.415Z,87.28
2018-10-17T06:59:33.498Z,87.52
2018-10-17T07:00:41.546Z,87.42
2018-10-17T07:01:49.740Z,87.04
2018-10-17T07:02:57.672Z,87.23
2018-10-17T07:04:05.743Z,87.42
2018-10-17T07:05:13.864Z,87.04
2018-10-17T07:06:21.861Z,87.13
2018-10-17T07:07:29.924Z,87.52
2018-10-17T07:08:38.102Z,87.61
2018-10-17T07:09:46.050Z,87.18
2018-10-17T07:10:54.149Z,87.85
2018-10-17T07:12:02.185Z,87.18
2018-10-17T07:13:10.327Z,87.27
2018-10-17T07:14:18.268Z,87.46
2018-10-17T07:15:26.553Z,87.37
2018-10-17T07:16:34.422Z,87.46
2018-10-17T07:17:42.489Z,87.65
2018-10-17T07:18:50.562Z,88.13
2018-10-17T07:19:58.588Z,89.08
2018-10-17T07:21:06.675Z,88.56
2018-10-17T07:22:14.744Z,88.37
2018-10-17T07:23:22.801Z,87.51
2018-10-17T07:24:30.873Z,87.51
2018-10-17T07:25:38.935Z,86.69
2018-10-17T07:26:46.992Z,85.17
2018-10-17T07:27:55.045Z,83.69
2018-10-17T07:29:03.195Z,83.97
2018-10-17T07:30:11.177Z,83.12
2018-10-17T07:31:19.240Z,83.50
2018-10-17T07:32:27.304Z,82.87
2018-10-17T07:33:35.365Z,82.87
2018-10-17T07:34:43.428Z,83.35
2018-10-17T07:35:51.593Z,83.16
2018-10-17T07:36:59.560Z,82.30
2018-10-17T07:38:07.623Z,81.86
2018-10-17T07:39:15.714Z,81.38
2018-10-17T07:40:23.760Z,81.67
2018-10-17T07:41:31.809Z,80.91
2018-10-17T07:42:39.879Z,80.47
2018-10-17T07:43:47.944Z,79.23
2018-10-17T07:44:56.014Z,78.66
2018-10-17T07:46:04.079Z,75.70
2018-10-17T07:47:12.136Z,74.74
2018-10-17T07:48:20.218Z,76.84
2018-10-17T07:49:28.254Z,73.41
2018-10-17T07:50:36.332Z,73.41
2018-10-17T07:51:44.406Z,74.27
2018-10-17T07:52:52.491Z,72.64
2018-10-17T07:54:00.575Z,73.22
2018-10-17T07:55:08.569Z,73.69
2018-10-17T07:56:16.653Z,73.41
2018-10-17T07:57:24.725Z,72.83
2018-10-17T07:58:32.790Z,71.98
2018-10-17T07:59:40.894Z,71.15
2018-10-17T08:00:48.907Z,71.25
2018-10-17T08:01:56.985Z,72.30
2018-10-17T08:03:05.047Z,73.54
2018-10-17T08:04:13.102Z,72.78
2018-10-17T08:05:21.179Z,73.83
2018-10-17T08:06:29.262Z,73.35
2018-10-17T08:07:37.313Z,73.63
2018-10-17T08:08:45.373Z,72.58
2018-10-17T08:09:53.429Z,72.87
2018-10-17T08:11:01.516Z,73.44
2018-10-17T08:12:09.638Z,75.54
2018-10-17T08:13:17.632Z,74.11
2018-10-17T08:14:25.685Z,72.78
2018-10-17T08:15:33.763Z,73.63
2018-10-17T08:16:41.807Z,73.92
2018-10-17T08:17:49.917Z,75.45
2018-10-17T08:18:57.943Z,73.92
2018-10-17T08:20:06.006Z,73.07
2018-10-17T08:21:14.144Z,72.43
2018-10-17T08:22:22.137Z,71.86
2018-10-17T08:23:30.214Z,72.62
2018-10-17T08:24:38.265Z,73.19
2018-10-17T08:25:46.347Z,72.33
2018-10-17T08:26:54.416Z,71.76
2018-10-17T08:28:02.482Z,72.05
2018-10-17T08:29:10.547Z,72.56
2018-10-17T08:30:18.736Z,70.61
2018-10-17T08:31:26.875Z,70.84
2018-10-17T08:32:36.550Z,71.89
2018-10-17T08:33:44.612Z,70.56
2018-10-17T08:34:52.887Z,71.32
2018-10-17T08:36:01.094Z,69.50
2018-10-17T08:37:47.971Z,68.84
2018-10-17T08:38:55.505Z,69.41
2018-10-17T08:40:04.981Z,69.70
2018-10-17T08:41:13.223Z,68.74
2018-10-17T08:42:21.109Z,68.16
2018-10-17T08:43:29.173Z,67.72
2018-10-17T08:44:37.254Z,68.87
2018-10-17T08:45:45.300Z,68.20
2018-10-17T08:46:53.381Z,67.14
2018-10-17T08:48:01.439Z,66.38
2018-10-17T08:49:09.498Z,66.96
2018-10-17T08:50:17.716Z,68.10
2018-10-17T08:51:25.633Z,66.47
2018-10-17T08:52:33.698Z,66.47
2018-10-17T08:53:41.771Z,66.86
2018-10-17T08:54:49.816Z,66.00
2018-10-17T08:57:11.810Z,65.65
2018-10-17T08:58:19.875Z,66.89
2018-10-17T08:59:27.924Z,68.80
2018-10-17T09:00:36.004Z,68.71
2018-10-17T09:01:44.075Z,70.15
2018-10-17T09:02:52.134Z,69.95
2018-10-17T09:04:00.201Z,69.76
2018-10-17T09:05:08.246Z,69.51
2018-10-17T09:06:16.500Z,68.27
2018-10-17T09:07:24.407Z,67.88
2018-10-17T09:08:32.465Z,68.84
2018-10-17T09:09:40.530Z,69.42
2018-10-17T09:10:48.567Z,69.80
2018-10-17T09:11:56.720Z,69.13
2018-10-17T09:13:04.731Z,68.94
2018-10-17T09:14:12.863Z,65.39
2018-10-17T09:15:20.862Z,67.05
2018-10-17T09:16:28.956Z,65.71
2018-10-17T09:17:36.993Z,63.70
2018-10-17T09:18:45.070Z,64.37
2018-10-17T09:19:53.305Z,64.18
2018-10-17T09:21:01.763Z,65.71
2018-10-17T09:22:09.686Z,62.74
2018-10-17T09:23:17.322Z,62.17
2018-10-17T09:24:25.384Z,62.26
2018-10-17T09:25:33.480Z,62.46
2018-10-17T09:26:41.525Z,62.46
2018-10-17T09:27:49.584Z,64.59
2018-10-17T09:28:57.660Z,62.49
2018-10-17T09:30:05.778Z,62.39
2018-10-17T09:31:13.793Z,65.08
2018-10-17T09:32:21.858Z,64.22
2018-10-17T09:33:29.917Z,60.67
2018-10-17T09:34:37.982Z,61.27
2018-10-17T09:35:46.186Z,61.43
2018-10-17T09:36:54.134Z,61.85
2018-10-17T09:38:02.199Z,64.34
2018-10-17T09:39:10.263Z,63.76
2018-10-17T09:40:18.440Z,63.86
2018-10-17T09:41:26.393Z,64.63
2018-10-17T09:42:34.452Z,62.62
2018-10-17T09:43:42.522Z,62.42
2018-10-17T09:44:50.586Z,63.79
2018-10-17T09:45:58.697Z,64.18
2018-10-17T09:47:06.723Z,63.99
2018-10-17T09:48:14.852Z,64.09
2018-10-17T09:49:22.862Z,64.09
2018-10-17T09:50:30.926Z,65.43
2018-10-17T09:51:38.976Z,61.62
2018-10-17T09:52:47.069Z,59.03
2018-10-17T09:53:55.205Z,59.03
2018-10-17T09:55:03.190Z,63.83
2018-10-17T09:56:11.272Z,61.91
2018-10-17T09:57:19.333Z,61.62
2018-10-17T09:58:27.408Z,59.99
2018-10-17T09:59:35.479Z,61.33
2018-10-17T10:00:43.525Z,61.91
2018-10-17T10:01:51.601Z,63.67
2018-10-17T10:02:59.668Z,60.21
2018-10-17T10:04:07.750Z,59.44
2018-10-17T10:05:15.803Z,57.23
2018-10-17T10:06:23.870Z,58.96
2018-10-17T10:07:31.949Z,60.98
2018-10-17T10:08:40.004Z,57.90
2018-10-17T10:09:48.065Z,59.06
2018-10-17T10:10:56.218Z,58.87
2018-10-17T10:12:04.254Z,59.44
2018-10-17T10:13:12.483Z,57.04
2018-10-17T10:14:24.409Z,59.19
2018-10-17T10:15:31.261Z,60.05
2018-10-17T10:16:37.294Z,58.42
2018-10-17T10:17:48.588Z,54.86
2018-10-17T10:18:56.658Z,54.86
2018-10-17T10:20:04.720Z,58.51
2018-10-17T10:21:12.788Z,56.30
2018-10-17T10:22:21.267Z,55.53
2018-10-17T10:23:30.006Z,53.74
2018-10-17T10:24:38.004Z,55.53
2018-10-17T10:25:46.080Z,55.56
2018-10-17T10:26:54.133Z,54.41
2018-10-17T10:29:19.978Z,53.03
2018-10-17T10:30:27.544Z,52.26
2018-10-17T10:31:35.708Z,53.45
2018-10-17T10:32:48.262Z,53.06
2018-10-17T10:33:53.544Z,53.35
2018-10-17T10:35:01.541Z,54.60
2018-10-17T10:36:09.696Z,51.91
2018-10-17T10:37:17.661Z,56.04
2018-10-17T10:38:25.722Z,55.37
2018-10-17T10:39:33.790Z,56.14
2018-10-17T10:40:41.921Z,54.14
2018-10-17T10:41:49.959Z,51.55
2018-10-17T10:42:57.995Z,52.99
2018-10-17T10:44:06.140Z,56.65
2018-10-17T10:45:14.264Z,55.68
2018-10-17T10:46:22.231Z,51.26
2018-10-17T10:47:30.271Z,53.96
2018-10-17T10:48:38.309Z,51.55
2018-10-17T10:49:46.408Z,52.12
2018-10-17T10:50:54.522Z,55.20
2018-10-17T10:52:02.546Z,53.66
2018-10-17T10:53:10.848Z,51.84
2018-10-17T10:54:18.939Z,50.10
2018-10-17T10:55:26.961Z,52.51
2018-10-17T10:56:35.018Z,52.89
2018-10-17T10:57:43.090Z,52.99
2018-10-17T10:58:51.335Z,50.40
2018-10-17T10:59:59.236Z,51.07
2018-10-17T11:01:07.316Z,49.82
2018-10-17T11:02:15.449Z,49.72
2018-10-17T11:03:23.440Z,50.56
2018-10-17T11:04:31.520Z,49.79
2018-10-17T11:05:39.836Z,51.26
2018-10-17T11:06:47.635Z,51.35
2018-10-17T11:07:55.716Z,50.30
2018-10-17T11:09:03.778Z,51.17
2018-10-17T11:10:11.849Z,50.90
2018-10-17T11:11:20.039Z,52.63
2018-10-17T11:12:27.989Z,52.25
2018-10-17T11:13:36.051Z,53.21
2018-10-17T11:14:44.300Z,49.46
2018-10-17T11:15:52.199Z,49.94
2018-10-17T11:17:00.273Z,49.46
2018-10-17T11:18:08.294Z,48.21
2018-10-17T11:19:16.395Z,52.34
2018-10-17T11:20:26.678Z,52.06
2018-10-17T11:21:34.946Z,54.65
2018-10-17T11:22:43.009Z,52.54
2018-10-17T11:23:51.089Z,53.88
2018-10-17T11:24:59.141Z,49.94
2018-10-17T11:26:07.236Z,48.21
2018-10-17T11:27:15.343Z,48.88
2018-10-17T11:28:23.367Z,48.59
2018-10-17T11:29:31.413Z,48.49
2018-10-17T11:30:39.514Z,48.59
2018-10-17T11:31:47.614Z,49.74
2018-10-17T11:32:55.672Z,48.69
2018-10-17T11:34:03.704Z,48.49
2018-10-17T11:35:11.923Z,48.59
2018-10-17T11:36:19.847Z,51.19
2018-10-17T11:37:27.955Z,49.65
2018-10-17T11:38:35.990Z,47.24
2018-10-17T11:39:44.063Z,48.79
2018-10-17T11:40:52.188Z,47.53
2018-10-17T11:42:01.000Z,47.15
2018-10-17T11:43:09.071Z,50.23
2018-10-17T11:44:17.137Z,49.74
2018-10-17T11:45:25.215Z,47.34
2018-10-17T11:46:33.271Z,46.77
2018-10-17T11:47:41.400Z,47.15
2018-10-17T11:48:49.416Z,50.23
2018-10-17T11:49:57.511Z,50.23
2018-10-17T11:51:05.599Z,51.38
2018-10-17T11:52:13.616Z,49.48
2018-10-17T11:53:25.519Z,48.03
2018-10-17T11:54:33.996Z,47.08
2018-10-17T11:55:42.053Z,47.56
2018-10-17T11:56:50.126Z,48.23
2018-10-17T11:57:58.191Z,46.88
2018-10-17T11:59:06.301Z,46.69
2018-10-17T12:00:14.331Z,46.78
2018-10-17T12:01:22.400Z,48.23
2018-10-17T12:02:30.469Z,50.06
2018-10-17T12:03:38.578Z,49.96
2018-10-17T12:04:46.960Z,48.33
2018-10-17T12:05:54.785Z,52.27
2018-10-17T12:07:02.751Z,48.23
2018-10-17T12:08:10.817Z,48.90
2018-10-17T12:09:18.995Z,45.63
2018-10-17T12:10:26.960Z,45.25
2018-10-17T12:11:35.036Z,44.48
2018-10-17T12:12:43.104Z,47.15
2018-10-17T12:13:51.174Z,47.44
2018-10-17T12:14:59.248Z,48.59
2018-10-17T12:16:07.313Z,50.32
2018-10-17T12:17:15.367Z,46.47
2018-10-17T12:18:23.426Z,45.90
2018-10-17T12:19:31.523Z,50.13
2018-10-17T12:20:39.583Z,48.40
2018-10-17T12:21:47.654Z,47.34
2018-10-17T12:22:55.711Z,46.67
2018-10-17T12:24:03.865Z,51.96
2018-10-17T12:25:11.861Z,49.94
2018-10-17T12:26:19.917Z,48.79
2018-10-17T12:27:27.985Z,49.94
2018-10-17T12:28:36.203Z,50.35
2018-10-17T12:29:44.136Z,48.61
2018-10-17T12:30:52.207Z,49.10
2018-10-17T12:32:00.267Z,49.87
2018-10-17T12:33:08.382Z,49.96
2018-10-17T12:34:16.418Z,52.47
2018-10-17T12:35:24.487Z,50.45
2018-10-17T12:36:32.552Z,49.77
2018-10-17T12:37:40.621Z,49.77
2018-10-17T12:38:48.678Z,49.68
2018-10-17T12:39:57.044Z,50.54
2018-10-17T12:41:05.057Z,50.06
2018-10-17T12:42:12.909Z,49.29
2018-10-17T12:43:20.975Z,49.58
2018-10-17T12:44:29.027Z,49.96
2018-10-17T12:45:37.128Z,48.81
2018-10-17T12:46:45.178Z,50.15
2018-10-17T12:47:53.242Z,49.48
2018-10-17T12:49:01.322Z,47.56
2018-10-17T12:50:09.423Z,48.81
2018-10-17T12:51:17.451Z,50.06
2018-10-17T12:52:25.596Z,49.68
2018-10-17T12:53:33.638Z,48.52
2018-10-17T12:54:41.663Z,51.70
2018-10-17T12:55:49.709Z,51.21
2018-10-17T12:56:57.797Z,51.31
2018-10-17T12:58:05.865Z,50.35
2018-10-17T12:59:14.112Z,48.81
2018-10-17T13:00:22.004Z,47.75
2018-10-17T13:01:30.125Z,45.73
2018-10-17T13:02:38.120Z,46.11
2018-10-17T13:03:46.220Z,47.85
2018-10-17T13:04:54.284Z,48.03
2018-10-17T13:06:02.350Z,48.43
2018-10-17T13:07:10.505Z,46.11
2018-10-17T13:08:18.458Z,45.15
2018-10-17T13:09:26.564Z,45.44
2018-10-17T13:10:34.622Z,45.99
2018-10-17T13:11:42.692Z,46.50
2018-10-17T13:12:50.767Z,46.11
2018-10-17T13:13:58.806Z,45.25
2018-10-17T13:15:06.962Z,45.83
2018-10-17T13:16:14.971Z,47.94
2018-10-17T13:17:23.050Z,45.63
2018-10-17T13:18:31.117Z,47.27
2018-10-17T13:19:39.174Z,46.31
2018-10-17T13:20:47.236Z,45.44
2018-10-17T13:21:55.320Z,47.85
2018-10-17T13:23:06.085Z,48.13
2018-10-17T13:24:14.075Z,48.61
2018-10-17T13:25:22.141Z,46.31
2018-10-17T13:26:30.215Z,47.58
2018-10-17T13:27:38.283Z,46.59
2018-10-17T13:28:46.361Z,46.62
2018-10-17T13:29:54.420Z,46.40
2018-10-17T13:31:02.528Z,46.21
2018-10-17T13:32:10.559Z,48.13
2018-10-17T13:33:18.592Z,46.78
2018-10-17T13:34:26.702Z,46.88
2018-10-17T13:35:34.758Z,47.36
2018-10-17T13:36:42.827Z,47.46
2018-10-17T13:37:50.902Z,45.44
2018-10-17T13:38:58.951Z,45.13
2018-10-17T13:41:21.574Z,45.51
2018-10-17T13:42:29.649Z,48.69
2018-10-17T13:43:37.718Z,49.65
2018-10-17T13:44:45.776Z,46.77
2018-10-17T13:45:53.868Z,47.80
2018-10-17T13:47:01.981Z,49.36
2018-10-17T13:48:09.990Z,48.08
2018-10-17T13:49:18.244Z,49.82
2018-10-17T13:50:26.133Z,48.69
2018-10-17T13:51:34.194Z,48.57
2018-10-17T13:52:42.272Z,49.33
2018-10-17T13:53:52.949Z,49.05
2018-10-17T13:55:01.029Z,47.34
2018-10-17T13:56:09.094Z,47.03
2018-10-17T13:57:18.150Z,48.79
2018-10-17T13:58:26.289Z,49.82
2018-10-17T13:59:34.339Z,50.13
2018-10-17T14:00:42.352Z,47.34
2018-10-17T14:01:50.424Z,46.47
2018-10-17T14:02:58.473Z,47.41
2018-10-17T14:04:06.667Z,46.06
2018-10-17T14:05:14.636Z,46.26
2018-10-17T14:06:22.710Z,46.45
2018-10-17T14:07:30.790Z,47.80
2018-10-17T14:08:38.803Z,46.84
2018-10-17T14:09:46.929Z,46.74
2018-10-17T14:10:54.977Z,48.66
2018-10-17T14:12:03.147Z,49.91
2018-10-17T14:13:11.127Z,48.08
2018-10-17T14:14:19.182Z,47.41
2018-10-17T14:15:27.247Z,48.76
2018-10-17T14:16:35.350Z,47.61
2018-10-17T14:17:43.392Z,47.70
2018-10-17T14:18:51.464Z,48.57
2018-10-17T14:19:59.527Z,48.28
2018-10-17T14:21:07.638Z,48.95
2018-10-17T14:22:15.679Z,47.41
2018-10-17T14:23:23.784Z,47.31
2018-10-17T14:24:31.807Z,47.89
2018-10-17T14:25:39.908Z,48.21
2018-10-17T14:26:47.929Z,47.72
2018-10-17T14:27:56.004Z,46.55
2018-10-17T14:29:04.081Z,45.49
2018-10-17T14:30:12.338Z,46.36
2018-10-17T14:31:20.215Z,48.08
2018-10-17T14:32:28.364Z,47.31
2018-10-17T14:33:36.355Z,48.57
2018-10-17T14:34:44.445Z,48.85
2018-10-17T14:35:52.548Z,48.18
2018-10-17T14:37:00.558Z,49.33
2018-10-17T14:38:08.620Z,48.57
2018-10-17T14:39:16.835Z,49.91
2018-10-17T14:40:24.775Z,48.76
2018-10-17T14:41:32.836Z,49.53
2018-10-17T14:42:40.908Z,49.33
2018-10-17T14:43:49.171Z,49.63
2018-10-17T14:44:57.084Z,48.57
2018-10-17T14:46:05.112Z,49.53
2018-10-17T14:47:13.180Z,49.72
2018-10-17T14:48:21.249Z,51.35
2018-10-17T14:49:29.326Z,50.10
2018-10-17T14:50:37.399Z,51.55
2018-10-17T14:51:45.458Z,52.32
2018-10-17T14:52:53.550Z,53.28
2018-10-17T14:54:01.591Z,51.35
2018-10-17T14:55:09.656Z,50.49
2018-10-17T14:56:17.857Z,51.26
2018-10-17T14:57:25.793Z,52.68
2018-10-17T14:58:33.863Z,53.92
2018-10-17T14:59:41.932Z,50.68
2018-10-17T15:00:50.004Z,49.41
2018-10-17T15:01:58.065Z,49.99
2018-10-17T15:03:06.221Z,50.95
2018-10-17T15:04:14.215Z,50.08
2018-10-17T15:05:22.284Z,49.89
2018-10-17T15:06:30.345Z,50.66
2018-10-17T15:07:38.405Z,50.46
2018-10-17T15:08:46.487Z,49.79
2018-10-17T15:09:54.617Z,49.69
2018-10-17T15:11:02.807Z,50.08
2018-10-17T15:12:10.828Z,50.27
2018-10-17T15:13:18.748Z,52.58
2018-10-17T15:14:26.825Z,51.53
2018-10-17T15:15:34.897Z,50.66
2018-10-17T15:16:43.066Z,51.23
2018-10-17T15:17:51.078Z,51.33
2018-10-17T15:18:59.103Z,51.23
2018-10-17T15:20:07.170Z,53.83
2018-10-17T15:21:15.287Z,51.11
2018-10-17T15:22:23.304Z,51.69
2018-10-17T15:23:31.383Z,51.69
2018-10-17T15:24:39.503Z,51.02
2018-10-17T15:25:47.510Z,51.91
2018-10-17T15:26:55.601Z,53.23
2018-10-17T15:28:03.649Z,51.69
2018-10-17T15:29:11.715Z,53.42
2018-10-17T15:30:19.933Z,53.90
2018-10-17T15:31:27.935Z,52.94
2018-10-17T15:32:35.912Z,54.00
2018-10-17T15:33:43.984Z,54.83
2018-10-17T15:34:52.066Z,54.93
2018-10-17T15:36:00.190Z,53.32
2018-10-17T15:37:08.294Z,52.43
2018-10-17T15:38:16.260Z,53.11
2018-10-17T15:39:24.331Z,52.72
2018-10-17T15:40:32.406Z,54.35
2018-10-17T15:41:40.472Z,55.79
2018-10-17T15:42:48.522Z,56.56
2018-10-17T15:43:56.596Z,56.66
2018-10-17T15:45:04.710Z,56.46
2018-10-17T15:46:12.749Z,56.34
2018-10-17T15:47:20.814Z,55.10
2018-10-17T15:48:28.916Z,55.67
2018-10-17T15:49:39.142Z,54.90
2018-10-17T15:50:47.408Z,54.71
2018-10-17T15:54:20.931Z,55.45
2018-10-17T15:55:28.985Z,56.12
2018-10-17T15:56:37.058Z,55.64
2018-10-17T15:57:45.113Z,57.28
2018-10-17T15:58:53.182Z,57.46
2018-10-17T16:00:01.320Z,57.65
2018-10-17T16:01:09.418Z,58.42
2018-10-17T16:02:17.469Z,58.91
2018-10-17T16:03:25.445Z,59.93
2018-10-17T16:04:33.513Z,59.64
2018-10-17T16:05:41.582Z,59.64
2018-10-17T16:06:49.640Z,61.27
2018-10-17T16:07:57.762Z,61.56
2018-10-17T16:09:05.798Z,61.15
2018-10-17T16:10:13.856Z,61.34
2018-10-17T16:11:21.948Z,61.34
2018-10-17T16:12:30.048Z,62.30
2018-10-17T16:13:38.039Z,62.68
2018-10-17T16:14:46.118Z,63.32
2018-10-17T16:15:54.198Z,62.46
2018-10-17T16:17:02.324Z,62.93
2018-10-17T16:18:10.480Z,63.42
2018-10-17T16:19:18.372Z,62.74
2018-10-17T16:20:26.442Z,63.70
2018-10-17T16:21:34.530Z,63.99
2018-10-17T16:22:42.657Z,63.48
2018-10-17T16:23:50.653Z,63.67
2018-10-17T16:24:58.690Z,63.96
2018-10-17T16:26:06.826Z,64.34
2018-10-17T16:27:14.844Z,64.25
2018-10-17T16:28:22.926Z,63.86
2018-10-17T16:29:30.997Z,64.72
2018-10-17T16:30:39.224Z,64.31
2018-10-17T16:31:47.122Z,64.79
2018-10-17T16:32:55.190Z,65.36
2018-10-17T16:34:03.260Z,66.03
2018-10-17T16:35:11.316Z,66.61
2018-10-17T16:36:19.564Z,66.41
2018-10-17T16:37:27.453Z,65.55
2018-10-17T16:38:35.521Z,66.57
2018-10-17T16:39:43.592Z,67.14
2018-10-17T16:40:51.734Z,67.05
2018-10-17T16:41:59.749Z,67.43
2018-10-17T16:43:07.785Z,68.29
2018-10-17T16:44:15.955Z,68.01
2018-10-17T16:45:23.956Z,68.07
2018-10-17T16:46:31.993Z,69.12
2018-10-17T16:47:40.140Z,68.84